Time;durP1;ratioP1;P1;durP2;ratioP2;P2;SDS_P1;SDS_P2;PMS_P1;PMS_P2;Temp;Humidity;BMP_temperature;BMP_pressure;BME280_temperature;BME280_humidity;BME280_pressure;Samples;Min_cycle;Max_cycle;Signal;HPM_P1;HPM_P2
2022/07/16 00:03:33;;;;;;;0.00;0.00;;;16.80;99.90;;;;;;5076031;28;20208;-69
2022/07/16 00:06:01;;;;;;;0.00;0.00;;;16.80;99.90;;;;;;5084675;28;20631;-69
2022/07/16 00:08:27;;;;;;;0.00;0.00;;;16.80;99.90;;;;;;5085359;28;20218;-69
2022/07/16 00:10:55;;;;;;;0.00;0.00;;;16.70;99.90;;;;;;5071185;28;20217;-70
2022/07/16 00:13:22;;;;;;;0.00;0.00;;;16.70;99.90;;;;;;5070918;28;20210;-70
2022/07/16 00:15:49;;;;;;;0.00;0.00;;;16.70;99.90;;;;;;5070791;28;20210;-69
2022/07/16 00:21:02;;;;;;;0.00;0.00;;;16.70;99.90;;;;;;5090219;28;20198;-70
2022/07/16 00:23:29;;;;;;;0.00;0.00;;;16.60;99.90;;;;;;5076340;28;20232;-70
2022/07/16 00:25:56;;;;;;;0.00;0.00;;;16.60;99.90;;;;;;5072354;28;20221;-69
2022/07/16 00:28:23;;;;;;;0.00;0.00;;;16.60;99.90;;;;;;5091807;28;20202;-71
2022/07/16 00:30:50;;;;;;;0.00;0.00;;;16.60;99.90;;;;;;5073768;28;20190;-71
2022/07/16 00:33:22;;;;;;;0.00;0.00;;;16.50;99.90;;;;;;5094713;28;20569;-69
2022/07/16 00:35:49;;;;;;;0.00;0.00;;;16.50;99.90;;;;;;5074815;28;20245;-69
2022/07/16 00:38:18;;;;;;;0.00;0.00;;;;;;;;;;5064687;28;20194;-70
2022/07/16 00:40:45;;;;;;;0.00;0.00;;;;;;;;;;5074207;28;20194;-69
2022/07/16 00:43:13;;;;;;;0.00;0.00;;;16.50;99.90;;;;;;5088325;28;20216;-69
2022/07/16 00:45:40;;;;;;;0.00;0.00;;;16.50;99.90;;;;;;5091098;28;20600;-70
2022/07/16 00:48:08;;;;;;;0.00;0.00;;;16.50;99.90;;;;;;5071079;28;20216;-70
2022/07/16 00:50:37;;;;;;;0.00;0.00;;;16.50;99.90;;;;;;5071273;28;20194;-70
2022/07/16 00:53:08;;;;;;;0.00;0.00;;;16.40;99.90;;;;;;5071005;28;20232;-69
2022/07/16 00:55:37;;;;;;;0.00;0.00;;;16.40;99.90;;;;;;5071214;28;20225;-69
2022/07/16 00:58:05;;;;;;;0.00;0.00;;;16.40;99.90;;;;;;5084814;28;20203;-69
2022/07/16 01:00:32;;;;;;;0.00;0.00;;;16.40;99.90;;;;;;5065068;28;20224;-70
2022/07/16 01:03:00;;;;;;;0.00;0.00;;;16.40;99.90;;;;;;5074189;28;20185;-71
2022/07/16 01:05:28;;;;;;;0.00;0.00;;;16.40;99.90;;;;;;5070350;28;20218;-70
2022/07/16 01:07:56;;;;;;;0.00;0.00;;;16.40;99.90;;;;;;5070047;28;20194;-69
2022/07/16 01:10:23;;;;;;;0.00;0.00;;;16.40;99.90;;;;;;5087204;28;20201;-69
2022/07/16 01:12:52;;;;;;;0.00;0.00;;;16.50;99.90;;;;;;5070295;28;20226;-69
2022/07/16 01:15:19;;;;;;;0.00;0.00;;;16.50;99.90;;;;;;5070040;28;20218;-69
2022/07/16 01:17:46;;;;;;;0.00;0.00;;;16.50;99.90;;;;;;5086921;28;20204;-69
2022/07/16 01:20:14;;;;;;;0.00;0.00;;;16.50;99.90;;;;;;5083537;28;20203;-69
2022/07/16 01:22:42;;;;;;;0.00;0.00;;;16.50;99.90;;;;;;5083219;28;20241;-69
2022/07/16 01:25:11;;;;;;;0.00;0.00;;;16.50;99.90;;;;;;5087485;28;20241;-69
2022/07/16 01:27:39;;;;;;;0.00;0.00;;;16.50;99.90;;;;;;5066598;28;20202;-70
2022/07/16 01:30:08;;;;;;;0.00;0.00;;;16.50;99.90;;;;;;5077144;28;20194;-69
2022/07/16 01:32:36;;;;;;;0.00;0.00;;;16.50;99.90;;;;;;5083781;28;20217;-70
2022/07/16 01:35:04;;;;;;;0.00;0.00;;;16.50;99.90;;;;;;5085583;28;20213;-71
2022/07/16 01:37:31;;;;;;;0.00;0.00;;;16.50;99.90;;;;;;5083926;28;20206;-71
2022/07/16 01:39:58;;;;;;;0.00;0.00;;;16.50;99.90;;;;;;5087055;28;20193;-69
2022/07/16 01:42:26;;;;;;;0.00;0.00;;;16.50;99.90;;;;;;5091572;28;20200;-69
2022/07/16 01:44:53;;;;;;;0.00;0.00;;;16.60;99.90;;;;;;5083760;28;20232;-71
2022/07/16 01:47:20;;;;;;;0.00;0.00;;;16.50;99.90;;;;;;5074539;28;20212;-70
2022/07/16 01:49:47;;;;;;;0.00;0.00;;;16.50;99.90;;;;;;5067990;28;20209;-71
2022/07/16 01:52:17;;;;;;;0.00;0.00;;;16.50;99.90;;;;;;5087732;28;20228;-70
2022/07/16 01:54:46;;;;;;;0.00;0.00;;;16.50;99.90;;;;;;5065304;28;20229;-69
2022/07/16 01:57:14;;;;;;;0.00;0.00;;;16.50;99.90;;;;;;5064205;28;20202;-70
2022/07/16 01:59:44;;;;;;;0.00;0.00;;;16.50;99.90;;;;;;5075566;28;20229;-70
2022/07/16 02:02:11;;;;;;;0.00;0.00;;;16.50;99.90;;;;;;5080742;28;20212;-69
2022/07/16 02:04:39;;;;;;;0.00;0.00;;;16.50;99.90;;;;;;5085125;28;20221;-70
2022/07/16 02:07:06;;;;;;;0.00;0.00;;;16.50;99.90;;;;;;5087050;28;20684;-69
2022/07/16 02:09:34;;;;;;;0.03;0.03;;;16.50;99.90;;;;;;5068203;28;20222;-71
2022/07/16 02:12:01;;;;;;;0.00;0.00;;;16.50;99.90;;;;;;5068504;28;20295;-69
2022/07/16 02:14:28;;;;;;;0.00;0.00;;;16.50;99.90;;;;;;5082220;28;20245;-70
2022/07/16 02:16:57;;;;;;;0.00;0.00;;;16.50;99.90;;;;;;5086550;28;20198;-69
2022/07/16 02:19:24;;;;;;;0.00;0.00;;;16.50;99.90;;;;;;5084051;28;20209;-69
2022/07/16 02:21:51;;;;;;;0.00;0.00;;;16.50;99.90;;;;;;5070694;28;20204;-69
2022/07/16 02:24:18;;;;;;;0.00;0.00;;;16.50;99.90;;;;;;5088472;28;20218;-69
2022/07/16 02:26:45;;;;;;;0.00;0.00;;;16.50;99.90;;;;;;5086613;28;20205;-69
2022/07/16 02:29:12;;;;;;;0.00;0.00;;;16.50;99.90;;;;;;5093360;28;20189;-70
2022/07/16 02:31:39;;;;;;;0.00;0.00;;;16.50;99.90;;;;;;5072679;28;20285;-69
2022/07/16 02:34:08;;;;;;;0.00;0.00;;;16.50;99.90;;;;;;5069742;28;20218;-69
2022/07/16 02:36:35;;;;;;;0.00;0.00;;;16.50;99.90;;;;;;5085849;28;20202;-71
2022/07/16 02:39:02;;;;;;;0.00;0.00;;;16.50;99.90;;;;;;5072064;28;20198;-70
2022/07/16 02:41:29;;;;;;;0.00;0.00;;;16.50;99.90;;;;;;5067759;28;20325;-69
2022/07/16 02:43:56;;;;;;;0.00;0.00;;;;;;;;;;5069291;28;20322;-69
2022/07/16 02:46:23;;;;;;;0.10;0.10;;;;;;;;;;5078421;28;20327;-69
2022/07/16 02:48:50;;;;;;;0.00;0.00;;;;;;;;;;5070051;28;20198;-70
2022/07/16 02:51:19;;;;;;;0.00;0.00;;;;;;;;;;5067378;28;20201;-69
2022/07/16 02:53:46;;;;;;;0.00;0.00;;;;;;;;;;5086637;28;20205;-69
2022/07/16 02:56:14;;;;;;;0.00;0.00;;;;;;;;;;5086506;28;20271;-69
2022/07/16 02:58:41;;;;;;;0.00;0.00;;;;;;;;;;5068944;28;20290;-69
2022/07/16 03:01:08;;;;;;;0.00;0.00;;;;;;;;;;5068447;28;20194;-69
2022/07/16 03:03:36;;;;;;;0.00;0.00;;;;;;;;;;5085873;28;20243;-69
2022/07/16 03:06:03;;;;;;;0.00;0.00;;;;;;;;;;5069930;28;20203;-69
2022/07/16 03:08:32;;;;;;;0.00;0.00;;;;;;;;;;5067811;28;20293;-69
2022/07/16 03:10:59;;;;;;;0.00;0.00;;;;;;;;;;5081649;28;20210;-69
2022/07/16 03:13:26;;;;;;;0.00;0.00;;;;;;;;;;5084300;28;20268;-69
2022/07/16 03:15:54;;;;;;;0.00;0.00;;;;;;;;;;5084299;28;20218;-69
2022/07/16 03:18:21;;;;;;;0.00;0.00;;;;;;;;;;5065171;28;20213;-69
2022/07/16 03:20:49;;;;;;;0.00;0.00;;;;;;;;;;5067893;28;20719;-70
2022/07/16 03:23:17;;;;;;;0.00;0.00;;;;;;;;;;5067770;28;20256;-70
2022/07/16 03:25:45;;;;;;;0.00;0.00;;;;;;;;;;5057230;28;20309;-69
2022/07/16 03:28:12;;;;;;;0.00;0.00;;;;;;;;;;5070118;28;20208;-70
2022/07/16 03:30:40;;;;;;;0.00;0.00;;;;;;;;;;5073220;28;20202;-69
2022/07/16 03:33:07;;;;;;;0.00;0.00;;;;;;;;;;5093023;28;20244;-70
2022/07/16 03:35:34;;;;;;;0.00;0.00;;;16.40;99.90;;;;;;5071189;28;20255;-70
2022/07/16 03:40:47;;;;;;;0.00;0.00;;;16.40;99.90;;;;;;5071713;28;20243;-69
2022/07/16 03:43:14;;;;;;;0.00;0.00;;;16.40;99.90;;;;;;5090360;28;20304;-69
2022/07/16 03:45:41;;;;;;;0.00;0.00;;;16.40;99.90;;;;;;5071068;28;20275;-69
2022/07/16 03:48:08;;;;;;;0.00;0.00;;;16.40;99.90;;;;;;5089699;28;20240;-69
2022/07/16 03:50:35;;;;;;;0.00;0.00;;;16.50;99.90;;;;;;5071550;28;20189;-69
2022/07/16 03:53:02;;;;;;;0.10;0.10;;;16.50;99.90;;;;;;5088114;28;20635;-69
2022/07/16 03:55:29;;;;;;;0.00;0.00;;;16.60;99.90;;;;;;5071541;28;20209;-72
2022/07/16 03:57:57;;;;;;;0.00;0.00;;;16.60;99.90;;;;;;5077816;28;20202;-69
2022/07/16 04:00:24;;;;;;;0.00;0.00;;;16.60;99.90;;;;;;5073939;28;20205;-69
2022/07/16 04:02:51;;;;;;;0.00;0.00;;;16.70;99.90;;;;;;5087740;28;20276;-70
2022/07/16 04:05:18;;;;;;;0.00;0.00;;;16.70;99.90;;;;;;5073373;28;20227;-70
2022/07/16 04:07:45;;;;;;;0.00;0.00;;;16.80;99.90;;;;;;5089422;28;20246;-69
2022/07/16 04:10:12;;;;;;;0.00;0.00;;;16.80;99.90;;;;;;5071782;28;20209;-69
2022/07/16 04:12:39;;;;;;;0.00;0.00;;;16.80;99.90;;;;;;5072872;28;20216;-70
2022/07/16 04:15:08;;;;;;;0.00;0.00;;;16.90;99.90;;;;;;5071367;28;20601;-69
2022/07/16 04:17:35;;;;;;;0.00;0.00;;;16.90;99.90;;;;;;5069952;28;20278;-69
2022/07/16 04:20:02;;;;;;;0.00;0.00;;;17.00;99.90;;;;;;5086921;28;20205;-69
2022/07/16 04:22:29;;;;;;;0.00;0.00;;;17.00;99.90;;;;;;5076663;28;20205;-69
2022/07/16 04:24:55;;;;;;;0.00;0.00;;;17.00;99.90;;;;;;5072008;28;20217;-69
2022/07/16 04:27:22;;;;;;;0.00;0.00;;;17.10;99.90;;;;;;5093972;28;20218;-69
2022/07/16 04:29:49;;;;;;;0.00;0.00;;;17.10;99.90;;;;;;5074777;28;20206;-69
2022/07/16 04:32:18;;;;;;;0.00;0.00;;;17.10;99.90;;;;;;5072610;28;20201;-69
2022/07/16 04:34:45;;;;;;;0.00;0.00;;;17.10;99.90;;;;;;5080159;28;20238;-69
2022/07/16 04:37:12;;;;;;;0.00;0.00;;;17.20;99.90;;;;;;5070059;28;20194;-69
2022/07/16 04:39:39;;;;;;;0.00;0.00;;;17.20;99.90;;;;;;5067781;28;20189;-70
2022/07/16 04:42:07;;;;;;;0.00;0.00;;;17.20;99.90;;;;;;5069554;28;20213;-69
2022/07/16 04:44:34;;;;;;;0.00;0.00;;;17.30;99.90;;;;;;5086456;28;20214;-70
2022/07/16 04:47:01;;;;;;;0.00;0.00;;;17.30;99.90;;;;;;5070131;28;20285;-70
2022/07/16 04:49:29;;;;;;;0.00;0.00;;;17.30;99.90;;;;;;5070386;28;20254;-69
2022/07/16 04:51:56;;;;;;;0.00;0.00;;;17.30;99.90;;;;;;5070298;28;20674;-69
2022/07/16 04:54:23;;;;;;;0.00;0.00;;;17.40;99.90;;;;;;5087378;28;20601;-69
2022/07/16 04:56:50;;;;;;;0.00;0.00;;;17.40;99.90;;;;;;5083201;28;20199;-69
2022/07/16 04:59:16;;;;;;;0.00;0.00;;;17.40;99.90;;;;;;5085804;28;20186;-70
2022/07/16 05:01:44;;;;;;;0.00;0.00;;;17.40;99.90;;;;;;5068574;28;20213;-69
2022/07/16 05:04:11;;;;;;;0.00;0.00;;;17.50;99.90;;;;;;5084313;28;20225;-69
2022/07/16 05:06:40;;;;;;;0.00;0.00;;;17.50;99.90;;;;;;5069327;28;20202;-69
2022/07/16 05:09:07;;;;;;;0.00;0.00;;;17.50;99.90;;;;;;5071391;28;20213;-69
2022/07/16 05:11:34;;;;;;;0.00;0.00;;;17.50;99.90;;;;;;5087167;28;20237;-71
2022/07/16 05:14:01;;;;;;;0.00;0.00;;;17.50;99.90;;;;;;5091605;28;20306;-69
2022/07/16 05:16:28;;;;;;;0.00;0.00;;;17.50;99.90;;;;;;5070428;28;20206;-71
2022/07/16 05:18:55;;;;;;;0.00;0.00;;;17.50;99.90;;;;;;5066028;28;20194;-69
2022/07/16 05:21:22;;;;;;;0.00;0.00;;;17.50;99.90;;;;;;5069265;28;20217;-70
2022/07/16 05:23:51;;;;;;;0.00;0.00;;;17.60;99.90;;;;;;5076453;28;20259;-70
2022/07/16 05:26:18;;;;;;;0.00;0.00;;;17.60;99.90;;;;;;5088862;28;20193;-70
2022/07/16 05:28:45;;;;;;;0.00;0.00;;;17.70;99.90;;;;;;5088769;28;20211;-71
2022/07/16 05:31:11;;;;;;;0.00;0.00;;;17.70;99.90;;;;;;5068586;28;20224;-70
2022/07/16 05:33:38;;;;;;;0.00;0.00;;;17.80;99.90;;;;;;5088602;28;20213;-70
2022/07/16 05:36:06;;;;;;;0.00;0.00;;;17.80;99.90;;;;;;5091766;28;20208;-70
2022/07/16 05:38:33;;;;;;;0.00;0.00;;;17.80;99.90;;;;;;5072480;28;20661;-70
2022/07/16 05:41:01;;;;;;;0.00;0.00;;;17.70;99.90;;;;;;5086915;28;20201;-70
2022/07/16 05:43:28;;;;;;;0.00;0.00;;;17.70;99.90;;;;;;5066932;28;20265;-69
2022/07/16 05:45:56;;;;;;;0.00;0.00;;;17.70;99.90;;;;;;5069853;28;20232;-69
2022/07/16 05:48:22;;;;;;;0.00;0.00;;;17.70;99.90;;;;;;5084189;28;20191;-70
2022/07/16 05:50:50;;;;;;;0.00;0.00;;;17.70;99.90;;;;;;5069270;28;20204;-69
2022/07/16 05:53:17;;;;;;;0.00;0.00;;;17.70;99.90;;;;;;5068823;28;20233;-69
2022/07/16 05:55:44;;;;;;;0.00;0.00;;;17.70;99.90;;;;;;5090807;28;20224;-69
2022/07/16 05:58:12;;;;;;;0.00;0.00;;;17.70;99.90;;;;;;5074925;28;20194;-70
2022/07/16 06:00:39;;;;;;;0.00;0.00;;;17.60;99.90;;;;;;5062611;28;20229;-70
2022/07/16 06:03:07;;;;;;;0.00;0.00;;;17.60;99.90;;;;;;5072803;28;20190;-69
2022/07/16 06:05:35;;;;;;;0.00;0.00;;;17.70;99.90;;;;;;5069893;28;20726;-69
2022/07/16 06:08:02;;;;;;;0.00;0.00;;;17.70;99.90;;;;;;5069111;28;20297;-69
2022/07/16 06:10:29;;;;;;;0.00;0.00;;;17.70;99.90;;;;;;5087150;28;20235;-69
2022/07/16 06:12:56;;;;;;;0.00;0.00;;;17.70;99.90;;;;;;5090111;28;20198;-71
2022/07/16 06:15:25;;;;;;;0.00;0.00;;;17.70;99.90;;;;;;5071753;28;20308;-69
2022/07/16 06:17:51;;;;;;;0.00;0.00;;;17.70;99.90;;;;;;5084248;28;20217;-69
2022/07/16 06:20:18;;;;;;;0.00;0.00;;;17.70;99.90;;;;;;5066734;28;20206;-70
2022/07/16 06:22:45;;;;;;;0.00;0.00;;;17.60;99.90;;;;;;5066898;28;20211;-69
2022/07/16 06:25:13;;;;;;;0.00;0.00;;;17.60;99.90;;;;;;5070071;28;20233;-71
2022/07/16 06:27:42;;;;;;;0.00;0.00;;;17.60;99.90;;;;;;5082053;28;20203;-69
2022/07/16 06:30:11;;;;;;;0.00;0.00;;;17.60;99.90;;;;;;5083602;28;20205;-70
2022/07/16 06:32:39;;;;;;;0.00;0.00;;;17.60;99.90;;;;;;5064104;28;20317;-70
2022/07/16 06:35:07;;;;;;;0.00;0.00;;;17.70;99.90;;;;;;5064310;28;20226;-70
2022/07/16 06:37:34;;;;;;;0.00;0.00;;;17.70;99.90;;;;;;5062484;28;20275;-70
2022/07/16 06:40:01;;;;;;;0.00;0.00;;;17.70;99.90;;;;;;5063331;28;20194;-70
2022/07/16 06:42:28;;;;;;;0.00;0.00;;;17.80;99.90;;;;;;5067207;28;20245;-71
2022/07/16 06:44:58;;;;;;;0.00;0.00;;;17.70;99.90;;;;;;5070707;28;20214;-71
2022/07/16 06:47:26;;;;;;;0.00;0.00;;;17.70;99.90;;;;;;5068214;28;20194;-70
2022/07/16 06:49:55;;;;;;;0.00;0.00;;;17.70;99.90;;;;;;5067417;28;20221;-71
2022/07/16 06:52:22;;;;;;;0.00;0.00;;;17.70;99.90;;;;;;5084340;28;20206;-70
2022/07/16 06:54:48;;;;;;;0.00;0.00;;;17.70;99.90;;;;;;5067575;28;20214;-71
2022/07/16 06:57:16;;;;;;;0.00;0.00;;;17.80;99.90;;;;;;5065231;28;20198;-70
2022/07/16 06:59:43;;;;;;;0.00;0.00;;;17.80;99.90;;;;;;5081306;28;20195;-70
2022/07/16 07:02:10;;;;;;;0.00;0.00;;;17.90;99.90;;;;;;5080388;28;20222;-71
2022/07/16 07:04:37;;;;;;;0.00;0.00;;;18.00;99.90;;;;;;5067466;28;20217;-70
2022/07/16 07:07:05;;;;;;;0.00;0.00;;;18.00;99.90;;;;;;5078944;28;20207;-71
2022/07/16 07:09:32;;;;;;;0.00;0.00;;;18.10;99.90;;;;;;5057390;28;20213;-71
2022/07/16 07:11:59;;;;;;;0.00;0.00;;;18.20;99.90;;;;;;5056892;28;20628;-71
2022/07/16 07:14:26;;;;;;;0.00;0.00;;;18.30;99.90;;;;;;5056659;28;20221;-71
2022/07/16 07:16:53;;;;;;;0.00;0.00;;;18.40;99.90;;;;;;5078001;28;20190;-71
2022/07/16 07:19:20;;;;;;;0.00;0.00;;;18.70;99.90;;;;;;5065392;28;20196;-72
2022/07/16 07:21:47;;;;;;;0.00;0.00;;;18.90;99.90;;;;;;5072435;28;20297;-71
2022/07/16 07:24:15;;;;;;;0.00;0.00;;;19.10;99.90;;;;;;5077971;28;20213;-71
2022/07/16 07:27:05;;;;;;;0.00;0.00;;;19.30;99.90;;;;;;5081930;28;20563;-71
2022/07/16 07:29:32;;;;;;;0.00;0.00;;;19.40;99.90;;;;;;5079458;28;20198;-71
2022/07/16 07:31:59;;;;;;;0.00;0.00;;;19.40;99.90;;;;;;5082013;28;20201;-71
2022/07/16 07:34:26;;;;;;;0.00;0.00;;;19.50;99.90;;;;;;5064327;28;20309;-71
2022/07/16 07:36:53;;;;;;;0.00;0.00;;;19.50;99.90;;;;;;5069635;28;20219;-72
2022/07/16 07:39:22;;;;;;;0.00;0.00;;;19.70;99.90;;;;;;5084335;28;20225;-71
2022/07/16 07:41:49;;;;;;;0.00;0.00;;;19.90;99.90;;;;;;5083371;28;20575;-72
2022/07/16 07:44:16;;;;;;;0.00;0.00;;;20.00;99.90;;;;;;5063202;28;20309;-72
2022/07/16 07:46:43;;;;;;;0.00;0.00;;;20.30;99.90;;;;;;5086171;28;20196;-72
2022/07/16 07:49:11;;;;;;;0.00;0.00;;;20.60;99.90;;;;;;5063997;28;20281;-71
2022/07/16 07:51:38;;;;;;;0.00;0.00;;;20.50;99.90;;;;;;5060993;28;20285;-71
2022/07/16 07:54:05;;;;;;;0.00;0.00;;;20.40;99.90;;;;;;5067361;28;20248;-71
2022/07/16 07:56:33;;;;;;;0.00;0.00;;;20.30;99.90;;;;;;5065488;28;20213;-70
2022/07/16 07:59:00;;;;;;;0.00;0.00;;;20.40;99.90;;;;;;5061835;28;20205;-72
2022/07/16 08:01:27;;;;;;;0.00;0.00;;;20.70;99.90;;;;;;5083677;28;20205;-72
2022/07/16 08:03:54;;;;;;;0.00;0.00;;;20.90;99.90;;;;;;5081432;28;20213;-71
2022/07/16 08:06:21;;;;;;;0.00;0.00;;;21.10;99.90;;;;;;5080234;28;20236;-72
2022/07/16 08:08:48;;;;;;;0.00;0.00;;;21.30;99.90;;;;;;5085984;28;20221;-72
2022/07/16 08:11:14;;;;;;;0.00;0.00;;;21.60;99.90;;;;;;5084529;28;20214;-73
2022/07/16 08:13:43;;;;;;;0.00;0.00;;;21.70;99.90;;;;;;5082997;28;20226;-72
2022/07/16 08:16:10;;;;;;;0.00;0.00;;;21.90;99.90;;;;;;5070841;28;20200;-71
2022/07/16 08:18:37;;;;;;;0.00;0.00;;;21.90;99.90;;;;;;5084030;28;20209;-71
2022/07/16 08:21:04;;;;;;;0.00;0.00;;;21.80;99.90;;;;;;5071758;28;20202;-71
2022/07/16 08:26:15;;;;;;;0.00;0.00;;;21.40;99.90;;;;;;5070406;28;20200;-71
2022/07/16 08:28:44;;;;;;;0.00;0.00;;;21.40;99.90;;;;;;5070386;28;20204;-69
2022/07/16 08:31:13;;;;;;;0.00;0.00;;;21.60;99.90;;;;;;5064424;28;20196;-70
2022/07/16 08:33:40;;;;;;;0.00;0.00;;;21.70;99.90;;;;;;5087421;28;20194;-69
2022/07/16 08:36:08;;;;;;;0.00;0.00;;;22.00;99.90;;;;;;5087768;28;20198;-69
2022/07/16 08:38:35;;;;;;;0.00;0.00;;;;;;;;;;5071550;28;20194;-69
2022/07/16 08:41:03;;;;;;;0.00;0.00;;;;;;;;;;5067383;28;20208;-71
2022/07/16 08:43:30;;;;;;;0.00;0.00;;;;;;;;;;5068769;28;20217;-70
2022/07/16 08:45:59;;;;;;;0.00;0.00;;;;;;;;;;5060516;28;20651;-69
2022/07/16 08:48:26;;;;;;;0.00;0.00;;;;;;;;;;5080667;28;20194;-69
2022/07/16 08:50:54;;;;;;;0.00;0.00;;;;;;;;;;5069564;28;20675;-69
2022/07/16 08:53:25;;;;;;;0.00;0.00;;;;;;;;;;5067005;28;20265;-69
2022/07/16 08:55:53;;;;;;;0.00;0.00;;;;;;;;;;5067623;28;20226;-68
2022/07/16 08:58:20;;;;;;;0.00;0.00;;;;;;;;;;5091718;28;20197;-69
2022/07/16 09:00:48;;;;;;;0.00;0.00;;;;;;;;;;5068665;28;20288;-69
2022/07/16 09:03:16;;;;;;;0.00;0.00;;;;;;;;;;5069378;28;20195;-69
2022/07/16 09:05:44;;;;;;;0.00;0.00;;;;;;;;;;5081394;28;20222;-69
2022/07/16 09:08:11;;;;;;;0.00;0.00;;;;;;;;;;5083782;28;20237;-69
2022/07/16 09:10:39;;;;;;;0.00;0.00;;;;;;;;;;5070298;28;20278;-69
2022/07/16 09:13:10;;;;;;;0.00;0.00;;;;;;;;;;5061740;28;20202;-70
2022/07/16 09:15:38;;;;;;;0.00;0.00;;;;;;;;;;5067987;28;20719;-69
2022/07/16 09:18:10;;;;;;;0.00;0.00;;;;;;;;;;5069156;28;20205;-69
2022/07/16 09:20:39;;;;;;;0.00;0.00;;;;;;;;;;5063160;28;20680;-70
2022/07/16 09:23:18;;;;;;;0.00;0.00;;;;;;;;;;5071711;28;20202;-69
2022/07/16 09:25:48;;;;;;;0.00;0.00;;;;;;;;;;5071545;28;20350;-69
2022/07/16 09:28:15;;;;;;;0.00;0.00;;;;;;;;;;5086165;28;20201;-69
2022/07/16 09:30:43;;;;;;;0.00;0.00;;;;;;;;;;5069704;28;20356;-69
2022/07/16 09:33:15;;;;;;;0.00;0.00;;;;;;;;;;5062520;28;20201;-70
2022/07/16 09:35:45;;;;;;;0.00;0.00;;;;;;;;;;5079572;28;20299;-69
2022/07/16 09:38:12;;;;;;;0.00;0.00;;;;;;;;;;5089118;28;20192;-71
2022/07/16 09:40:40;;;;;;;0.00;0.00;;;;;;;;;;5068785;28;20194;-69
2022/07/16 09:43:19;;;;;;;0.00;0.00;;;;;;;;;;5084171;28;20210;-71
2022/07/16 09:45:47;;;;;;;0.00;0.00;;;;;;;;;;5078898;28;20221;-70
2022/07/16 09:48:25;;;;;;;0.00;0.00;;;;;;;;;;5085267;28;20201;-72
2022/07/16 09:50:55;;;;;;;0.00;0.00;;;;;;;;;;5083151;28;20197;-71
2022/07/16 09:53:23;;;;;;;0.00;0.00;;;;;;;;;;5081076;28;20256;-71
2022/07/16 09:56:01;;;;;;;0.00;0.00;;;;;;;;;;5085456;28;20606;-71
2022/07/16 09:58:29;;;;;;;0.00;0.00;;;;;;;;;;5086265;28;20201;-70
2022/07/16 10:00:57;;;;;;;0.00;0.00;;;;;;;;;;5083486;28;20202;-70
2022/07/16 10:03:24;;;;;;;0.00;0.00;;;;;;;;;;5067939;28;20193;-71
2022/07/16 10:05:51;;;;;;;0.00;0.00;;;;;;;;;;5078418;28;20214;-71
2022/07/16 10:08:20;;;;;;;0.00;0.00;;;;;;;;;;5067067;28;20217;-71
2022/07/16 10:10:49;;;;;;;0.00;0.00;;;;;;;;;;5081934;28;20207;-70
2022/07/16 10:13:17;;;;;;;0.00;0.00;;;;;;;;;;5087587;28;20194;-69
2022/07/16 10:15:45;;;;;;;0.00;0.00;;;;;;;;;;5069177;28;20236;-71
2022/07/16 10:18:27;;;;;;;0.00;0.00;;;;;;;;;;5066603;28;20202;-71
2022/07/16 10:21:02;;;;;;;0.00;0.00;;;;;;;;;;5080032;28;20194;-71
2022/07/16 10:23:31;;;;;;;0.00;0.00;;;;;;;;;;5069597;28;20225;-71
2022/07/16 10:26:00;;;;;;;0.00;0.00;;;;;;;;;;5071250;28;20194;-71
2022/07/16 10:28:37;;;;;;;0.00;0.00;;;;;;;;;;5086117;28;20232;-70
2022/07/16 10:31:19;;;;;;;0.00;0.00;;;;;;;;;;5062151;28;20292;-71
2022/07/16 10:33:47;;;;;;;0.00;0.00;;;;;;;;;;5054521;28;20290;-71
2022/07/16 10:36:14;;;;;;;0.00;0.00;;;;;;;;;;5078701;28;20312;-70
2022/07/16 10:39:03;;;;;;;0.00;0.00;;;;;;;;;;5058153;28;20198;-71
2022/07/16 10:41:30;;;;;;;0.00;0.00;;;;;;;;;;5066818;28;20203;-70
2022/07/16 10:44:09;;;;;;;0.00;0.00;;;;;;;;;;5078106;28;20731;-70
2022/07/16 10:46:36;;;;;;;0.00;0.00;;;;;;;;;;5058541;28;20295;-70
2022/07/16 10:49:16;;;;;;;0.00;0.00;;;;;;;;;;5076930;28;20224;-71
2022/07/16 10:51:56;;;;;;;0.00;0.00;;;;;;;;;;5083419;28;20216;-71
2022/07/16 10:54:25;;;;;;;0.00;0.00;;;;;;;;;;5082070;28;20221;-70
2022/07/16 10:56:54;;;;;;;0.00;0.00;;;;;;;;;;5063600;28;20202;-71
2022/07/16 10:59:22;;;;;;;0.00;0.00;;;;;;;;;;5077374;28;20224;-71
2022/07/16 11:01:51;;;;;;;0.00;0.00;;;;;;;;;;5057666;28;20712;-73
2022/07/16 11:04:26;;;;;;;0.00;0.00;;;;;;;;;;5065297;28;20219;-71
2022/07/16 11:06:54;;;;;;;0.00;0.00;;;;;;;;;;5063866;28;20212;-71
2022/07/16 11:09:27;;;;;;;0.00;0.00;;;;;;;;;;5066060;28;20209;-71
2022/07/16 11:11:55;;;;;;;0.00;0.00;;;;;;;;;;5065518;28;20202;-71
2022/07/16 11:14:29;;;;;;;0.00;0.00;;;;;;;;;;5079346;28;20244;-71
2022/07/16 11:16:57;;;;;;;0.00;0.00;;;;;;;;;;5077490;28;20205;-72
2022/07/16 11:19:24;;;;;;;0.00;0.00;;;;;;;;;;5069845;28;20198;-72
2022/07/16 11:21:52;;;;;;;0.00;0.00;;;;;;;;;;5054202;28;20213;-71
2022/07/16 11:24:20;;;;;;;0.00;0.00;;;;;;;;;;5062489;28;20218;-72
2022/07/16 11:26:51;;;;;;;0.00;0.00;;;;;;;;;;5056134;28;20202;-70
2022/07/16 11:29:19;;;;;;;0.00;0.00;;;;;;;;;;5078213;28;20636;-70
2022/07/16 11:31:46;;;;;;;0.00;0.00;;;;;;;;;;5076558;28;20190;-71
2022/07/16 11:34:13;;;;;;;0.00;0.00;;;;;;;;;;5064739;28;20246;-70
2022/07/16 11:36:42;;;;;;;0.00;0.00;;;;;;;;;;5064234;28;20222;-71
2022/07/16 11:39:10;;;;;;;0.00;0.00;;;;;;;;;;5068719;28;20210;-71
2022/07/16 11:41:38;;;;;;;0.00;0.00;;;;;;;;;;5066247;28;20198;-71
2022/07/16 11:44:10;;;;;;;0.00;0.00;;;;;;;;;;5087217;28;20233;-71
2022/07/16 11:46:43;;;;;;;0.00;0.00;;;;;;;;;;5061896;28;20217;-72
2022/07/16 11:49:10;;;;;;;0.00;0.00;;;;;;;;;;5064407;28;20202;-71
2022/07/16 11:51:39;;;;;;;0.00;0.00;;;;;;;;;;5060775;28;20208;-71
2022/07/16 11:54:06;;;;;;;0.00;0.00;;;;;;;;;;5079216;28;20217;-71
2022/07/16 11:56:35;;;;;;;0.00;0.00;;;;;;;;;;5080340;28;20221;-71
2022/07/16 11:59:02;;;;;;;0.00;0.00;;;;;;;;;;5070853;28;20217;-70
2022/07/16 12:01:37;;;;;;;0.00;0.00;;;;;;;;;;5087624;28;20270;-71
2022/07/16 12:04:04;;;;;;;0.00;0.00;;;;;;;;;;5074907;28;20225;-71
2022/07/16 12:06:32;;;;;;;0.00;0.00;;;;;;;;;;5080011;28;20194;-71
2022/07/16 12:08:59;;;;;;;0.00;0.00;;;;;;;;;;5067197;28;20209;-72
2022/07/16 12:11:30;;;;;;;0.00;0.00;;;;;;;;;;5082551;28;20209;-71
2022/07/16 12:13:58;;;;;;;0.00;0.00;;;;;;;;;;5062647;28;20230;-71
2022/07/16 12:16:25;;;;;;;0.00;0.00;;;;;;;;;;5082819;28;20230;-71
2022/07/16 12:19:08;;;;;;;0.00;0.00;;;;;;;;;;5060950;28;20226;-70
2022/07/16 12:21:37;;;;;;;0.00;0.00;;;;;;;;;;5075513;28;20212;-71
2022/07/16 12:24:04;;;;;;;0.00;0.00;;;;;;;;;;5081054;28;20695;-72
2022/07/16 12:26:33;;;;;;;0.00;0.00;;;;;;;;;;5058617;28;20198;-70
2022/07/16 12:29:00;;;;;;;0.00;0.00;;;;;;;;;;5061406;28;20210;-70
2022/07/16 12:31:28;;;;;;;0.00;0.00;;;;;;;;;;5084598;28;20290;-71
2022/07/16 12:33:56;;;;;;;0.00;0.00;;;;;;;;;;5079043;28;20643;-69
2022/07/16 12:36:30;;;;;;;0.00;0.00;;;;;;;;;;5063913;28;20256;-70
2022/07/16 12:39:00;;;;;;;0.00;0.00;;;24.80;99.90;;;;;;5084761;28;20209;-70
2022/07/16 12:41:29;;;;;;;0.00;0.00;;;24.70;99.90;;;;;;5079442;28;20213;-71
2022/07/16 12:43:58;;;;;;;0.00;0.00;;;24.70;99.90;;;;;;5067361;28;20328;-72
2022/07/16 12:46:28;;;;;;;0.00;0.00;;;24.70;99.90;;;;;;5065828;28;20208;-71
2022/07/16 12:48:57;;;;;;;0.00;0.00;;;24.60;99.90;;;;;;5066374;28;20206;-71
2022/07/16 12:51:27;;;;;;;0.00;0.00;;;24.40;99.90;;;;;;5088427;28;20198;-70
2022/07/16 12:53:57;;;;;;;0.00;0.00;;;24.20;99.90;;;;;;5064242;28;20226;-71
2022/07/16 12:59:09;;;;;;;0.00;0.00;;;23.90;99.90;;;;;;5062104;28;20210;-70
2022/07/16 13:01:36;;;;;;;0.00;0.00;;;23.80;99.90;;;;;;5085724;28;20297;-71
2022/07/16 13:04:04;;;;;;;0.00;0.00;;;23.80;99.90;;;;;;5076779;28;20272;-70
2022/07/16 13:06:32;;;;;;;0.00;0.00;;;23.60;99.90;;;;;;5064166;28;20190;-71
2022/07/16 13:09:01;;;;;;;0.00;0.00;;;23.50;99.90;;;;;;5059225;28;20251;-72
2022/07/16 13:11:29;;;;;;;0.00;0.00;;;23.50;99.90;;;;;;5080876;28;20201;-71
2022/07/16 13:13:56;;;;;;;0.00;0.00;;;23.30;99.90;;;;;;5067303;28;20229;-71
2022/07/16 13:16:25;;;;;;;0.00;0.00;;;23.10;99.90;;;;;;5067147;28;20222;-70
2022/07/16 13:18:55;;;;;;;0.00;0.00;;;23.00;99.90;;;;;;5084779;28;20297;-70
2022/07/16 13:21:23;;;;;;;0.00;0.00;;;23.10;99.90;;;;;;5068003;28;20278;-71
2022/07/16 13:23:53;;;;;;;0.00;0.00;;;23.30;99.90;;;;;;5077551;28;20205;-70
2022/07/16 13:26:23;;;;;;;0.00;0.00;;;23.40;99.90;;;;;;5063191;28;20198;-70
2022/07/16 13:28:51;;;;;;;0.00;0.00;;;23.40;99.90;;;;;;5087996;28;20206;-70
2022/07/16 13:31:19;;;;;;;0.00;0.00;;;23.50;99.90;;;;;;5082814;28;20247;-70
2022/07/16 13:33:46;;;;;;;0.00;0.00;;;23.50;99.90;;;;;;5084202;28;20656;-70
2022/07/16 13:36:13;;;;;;;0.00;0.00;;;23.50;99.90;;;;;;5073759;28;20318;-69
2022/07/16 13:38:41;;;;;;;0.00;0.00;;;23.60;99.90;;;;;;5082979;28;20194;-72
2022/07/16 13:41:11;;;;;;;0.00;0.00;;;23.70;99.90;;;;;;5077528;28;20209;-70
2022/07/16 13:43:40;;;;;;;0.00;0.00;;;23.70;99.90;;;;;;5080037;28;20214;-70